Time;durP1;ratioP1;P1;durP2;ratioP2;P2;SDS_P1;SDS_P2;PMS_P1;PMS_P2;Temp;Humidity;BMP_temperature;BMP_pressure;BME280_temperature;BME280_humidity;BME280_pressure;Samples;Min_cycle;Max_cycle;Signal;HPM_P1;HPM_P2
2022/11/08 00:01:31;;;;;;;;;;;16.50;99.90;;;;;;5117289;28;20306;-91
2022/11/08 00:04:00;;;;;;;;;;;16.50;99.90;;;;;;5115321;28;19935;-90
2022/11/08 00:14:47;;;;;;;;;;;16.50;99.90;;;;;;5117220;28;20292;-91
2022/11/08 00:17:22;;;;;;;;;;;16.50;99.90;;;;;;5116856;28;19908;-90
2022/11/08 00:20:00;;;;;;;;;;;16.50;99.90;;;;;;5115893;28;19908;-90
2022/11/08 00:22:28;;;;;;;;;;;16.50;99.90;;;;;;5116427;28;19954;-89
2022/11/08 00:24:55;;;;;;;;;;;16.50;99.90;;;;;;5115698;28;19908;-91
2022/11/08 00:27:21;;;;;;;;;;;16.50;99.90;;;;;;5116801;28;19911;-89
2022/11/08 00:29:49;;;;;;;;;;;16.50;99.90;;;;;;5116386;28;20176;-90
2022/11/08 00:32:19;;;;;;;;;;;16.40;99.90;;;;;;5115950;28;19923;-90
2022/11/08 00:34:45;;;;;;;;;;;16.50;99.90;;;;;;5116371;28;19915;-89
2022/11/08 00:37:11;;;;;;;;;;;16.40;99.90;;;;;;5115560;28;19994;-92
2022/11/08 00:39:37;;;;;;;;;;;16.40;99.90;;;;;;5115758;28;20007;-89
2022/11/08 00:42:02;;;;;;;;;;;16.40;99.90;;;;;;5115220;28;20262;-89
2022/11/08 00:44:28;;;;;;;;;;;16.40;99.90;;;;;;5115457;28;19911;-90
2022/11/08 00:47:00;;;;;;;;;;;16.40;99.90;;;;;;5114412;28;19981;-90
2022/11/08 00:49:35;;;;;;;;;;;16.40;99.90;;;;;;5114278;28;19953;-90
2022/11/08 00:52:01;;;;;;;;;;;16.40;99.90;;;;;;5115602;28;20201;-91
2022/11/08 00:54:32;;;;;;;;;;;16.40;99.90;;;;;;5116214;28;20166;-90
2022/11/08 00:57:01;;;;;;;;;;;16.40;99.90;;;;;;5116590;28;19957;-91
2022/11/08 00:59:26;;;;;;;;;;;16.40;99.90;;;;;;5117226;28;19908;-90
2022/11/08 01:01:55;;;;;;;;;;;16.40;99.90;;;;;;5116190;28;20150;-90
2022/11/08 01:04:23;;;;;;;;;;;16.40;99.90;;;;;;5115258;28;20242;-90
2022/11/08 01:06:49;;;;;;;;;;;16.40;99.90;;;;;;5114667;28;20262;-90
2022/11/08 01:09:17;;;;;;;;;;;16.40;99.90;;;;;;5115850;28;19919;-91
2022/11/08 01:12:03;;;;;;;;;;;16.40;99.90;;;;;;5122310;28;20193;-90
2022/11/08 01:14:29;;;;;;;;;;;16.40;99.90;;;;;;5107655;28;20022;-90
2022/11/08 01:16:54;;;;;;;;;;;16.40;99.90;;;;;;5123176;28;19955;-90
2022/11/08 01:19:20;;;;;;;;;;;16.40;99.90;;;;;;5123087;28;20008;-91
2022/11/08 01:21:48;;;;;;;;;;;16.40;99.90;;;;;;5123235;28;19907;-90
2022/11/08 01:24:14;;;;;;;;;;;16.40;99.90;;;;;;5123110;28;19918;-90
2022/11/08 01:26:39;;;;;;;;;;;16.40;99.90;;;;;;5122753;28;19908;-91
2022/11/08 01:29:05;;;;;;;;;;;16.40;99.90;;;;;;5123094;28;19912;-89
2022/11/08 01:31:31;;;;;;;;;;;16.40;99.90;;;;;;5122677;28;19951;-90
2022/11/08 01:34:02;;;;;;;;;;;16.40;99.90;;;;;;5121928;28;20300;-90
2022/11/08 01:36:31;;;;;;;;;;;16.40;99.90;;;;;;5122400;28;19927;-91
2022/11/08 01:38:57;;;;;;;;;;;16.40;99.90;;;;;;5123125;28;19907;-91
2022/11/08 01:41:23;;;;;;;;;;;16.40;99.90;;;;;;5122590;28;19908;-90
2022/11/08 01:43:56;;;;;;;;;;;16.40;99.90;;;;;;5120670;28;20394;-90
2022/11/08 01:46:35;;;;;;;;;;;16.40;99.90;;;;;;5122453;28;19914;-90
2022/11/08 01:49:20;;;;;;;;;;;16.40;99.90;;;;;;5121787;28;19907;-90
2022/11/08 01:52:04;;;;;;;;;;;16.40;99.90;;;;;;5121908;28;19964;-91
2022/11/08 01:54:36;;;;;;;;;;;16.40;99.90;;;;;;5122538;28;19927;-90
2022/11/08 01:57:04;;;;;;;;;;;16.40;99.90;;;;;;5122644;28;19919;-90
2022/11/08 01:59:33;;;;;;;;;;;16.40;99.90;;;;;;5122268;28;20215;-90
2022/11/08 02:02:02;;;;;;;;;;;16.40;99.90;;;;;;5122506;28;19908;-90
2022/11/08 02:04:28;;;;;;;;;;;16.40;99.90;;;;;;5123450;28;19908;-90
2022/11/08 02:06:54;;;;;;;;;;;16.40;99.90;;;;;;5122529;28;19908;-89
2022/11/08 02:09:20;;;;;;;;;;;16.40;99.90;;;;;;5121024;28;19908;-90
2022/11/08 02:11:55;;;;;;;;;;;16.40;99.90;;;;;;5121413;28;20349;-90
2022/11/08 02:26:23;;;;;;;;;;;16.40;99.90;;;;;;5116798;28;20192;-90
2022/11/08 02:28:55;;;;;;;;;;;16.40;99.90;;;;;;5116308;28;19915;-90
2022/11/08 02:31:23;;;;;;;;;;;16.40;99.90;;;;;;5115980;28;19908;-90
2022/11/08 02:36:50;;;;;;;;;;;16.40;99.90;;;;;;5073032;28;20303;-90
2022/11/08 02:39:16;;;;;;;;;;;16.40;99.90;;;;;;5101755;28;19968;-90
2022/11/08 02:41:41;;;;;;;;;;;16.40;99.90;;;;;;5115645;28;20213;-90
2022/11/08 02:44:07;;;;;;;;;;;16.40;99.90;;;;;;5116395;28;19908;-89
2022/11/08 02:46:32;;;;;;;;;;;16.40;99.90;;;;;;5116303;28;19930;-89
2022/11/08 02:48:58;;;;;;;;;;;16.40;99.90;;;;;;5116840;28;19965;-92
2022/11/08 02:51:23;;;;;;;;;;;16.40;99.90;;;;;;5118486;28;19915;-91
2022/11/08 02:53:49;;;;;;;;;;;16.40;99.90;;;;;;5117755;28;19919;-90
2022/11/08 02:56:20;;;;;;;;;;;16.40;99.90;;;;;;5114089;28;19983;-90
2022/11/08 02:58:46;;;;;;;;;;;16.40;99.90;;;;;;5114412;28;19907;-89
2022/11/08 03:01:11;;;;;;;;;;;16.40;99.90;;;;;;5116523;28;20311;-90
2022/11/08 03:03:43;;;;;;;;;;;16.40;99.90;;;;;;5115342;28;20186;-90
2022/11/08 03:06:11;;;;;;;;;;;16.40;99.90;;;;;;5117533;28;19918;-90
2022/11/08 03:08:37;;;;;;;;;;;16.40;99.90;;;;;;5117140;28;20257;-89
2022/11/08 03:11:03;;;;;;;;;;;16.40;99.90;;;;;;5116736;28;19926;-90
2022/11/08 03:13:31;;;;;;;;;;;16.40;99.90;;;;;;5116123;28;19916;-90
2022/11/08 03:16:00;;;;;;;;;;;16.40;99.90;;;;;;5117646;28;19943;-90
2022/11/08 03:18:28;;;;;;;;;;;16.40;99.90;;;;;;5115286;28;19908;-91
2022/11/08 03:20:53;;;;;;;;;;;16.50;99.90;;;;;;5116183;28;20293;-90
2022/11/08 03:23:19;;;;;;;;;;;16.60;99.90;;;;;;5116010;28;19918;-90
2022/11/08 03:25:47;;;;;;;;;;;16.60;99.90;;;;;;5117012;28;20229;-90
2022/11/08 03:28:19;;;;;;;;;;;16.70;99.90;;;;;;5116236;28;19921;-90
2022/11/08 03:30:44;;;;;;;;;;;16.80;99.90;;;;;;5114906;28;19912;-91
2022/11/08 03:33:10;;;;;;;;;;;16.90;99.90;;;;;;5115727;28;19969;-89
2022/11/08 03:35:35;;;;;;;;;;;16.90;99.90;;;;;;5116765;28;19915;-90
2022/11/08 03:38:08;;;;;;;;;;;17.00;99.80;;;;;;5116588;28;19908;-90
2022/11/08 03:40:33;;;;;;;;;;;17.00;99.60;;;;;;5115070;28;19908;-90
2022/11/08 03:43:02;;;;;;;;;;;17.00;99.40;;;;;;5116389;28;20153;-89
2022/11/08 03:45:27;;;;;;;;;;;17.10;99.40;;;;;;5116272;28;20024;-91
2022/11/08 03:47:53;;;;;;;;;;;17.10;99.30;;;;;;5116078;28;19932;-90
2022/11/08 03:50:19;;;;;;;;;;;17.10;99.20;;;;;;5116282;28;20257;-90
2022/11/08 03:52:48;;;;;;;;;;;17.10;99.20;;;;;;5117406;28;19938;-90
2022/11/08 03:55:15;;;;;;;;;;;17.10;99.20;;;;;;5116243;28;19925;-90
2022/11/08 03:57:53;;;;;;;;;;;17.10;99.20;;;;;;5115712;28;19968;-90
2022/11/08 04:00:20;;;;;;;;;;;17.10;99.20;;;;;;5116024;28;20007;-91
2022/11/08 04:02:46;;;;;;;;;;;17.10;99.30;;;;;;5115900;28;20271;-90
2022/11/08 04:05:21;;;;;;;;;;;17.10;99.30;;;;;;5115165;28;20301;-90
2022/11/08 04:07:46;;;;;;;;;;;17.00;99.30;;;;;;5115051;28;19908;-90
2022/11/08 04:10:16;;;;;;;;;;;17.00;99.30;;;;;;5115698;28;19908;-90
2022/11/08 04:15:48;;;;;;;;;;;17.00;99.40;;;;;;5115827;28;20000;-89
2022/11/08 04:24:10;;;;;;;;;;;16.90;99.60;;;;;;5094093;28;19926;-90
2022/11/08 04:26:37;;;;;;;;;;;16.80;99.60;;;;;;5077432;28;20062;-90
2022/11/08 04:29:03;;;;;;;;;;;16.80;99.70;;;;;;5093409;28;20185;-90
2022/11/08 04:31:28;;;;;;;;;;;16.80;99.70;;;;;;5114396;28;19912;-90
2022/11/08 04:33:54;;;;;;;;;;;16.80;99.80;;;;;;5112975;28;19970;-90
2022/11/08 04:36:19;;;;;;;;;;;16.70;99.80;;;;;;5110330;28;20010;-90
2022/11/08 04:38:49;;;;;;;;;;;16.70;99.90;;;;;;5113421;28;19940;-90
2022/11/08 04:41:33;;;;;;;;;;;16.70;99.90;;;;;;5114495;28;20277;-90
2022/11/08 04:43:58;;;;;;;;;;;16.70;99.90;;;;;;5113194;28;19908;-90
2022/11/08 04:46:30;;;;;;;;;;;16.70;99.90;;;;;;5114298;28;20172;-91
2022/11/08 04:48:57;;;;;;;;;;;16.70;99.90;;;;;;5115273;28;19908;-91
2022/11/08 04:51:27;;;;;;;;;;;16.60;99.90;;;;;;5114579;28;19915;-91
2022/11/08 04:53:56;;;;;;;;;;;16.60;99.90;;;;;;5114683;28;19911;-91
2022/11/08 04:56:22;;;;;;;;;;;16.60;99.90;;;;;;5114430;28;19908;-91
2022/11/08 04:58:52;;;;;;;;;;;16.60;99.90;;;;;;5114491;28;19908;-90
2022/11/08 05:01:18;;;;;;;;;;;16.60;99.90;;;;;;5113401;28;19915;-90
2022/11/08 05:03:50;;;;;;;;;;;16.50;99.90;;;;;;5113488;28;19969;-91
2022/11/08 05:06:18;;;;;;;;;;;16.50;99.90;;;;;;5114255;28;20006;-91
2022/11/08 05:08:43;;;;;;;;;;;16.50;99.90;;;;;;5114383;28;19908;-90
2022/11/08 05:11:11;;;;;;;;;;;16.50;99.90;;;;;;5113038;28;20179;-91
2022/11/08 05:13:45;;;;;;;;;;;16.50;99.90;;;;;;5112767;28;20155;-90
2022/11/08 05:16:12;;;;;;;;;;;16.50;99.90;;;;;;5112568;28;19972;-90
2022/11/08 05:18:38;;;;;;;;;;;16.50;99.90;;;;;;5113503;28;19919;-91
2022/11/08 05:23:51;;;;;;;;;;;16.60;99.90;;;;;;5112976;28;19969;-90
2022/11/08 05:26:21;;;;;;;;;;;16.60;99.90;;;;;;5111888;28;20331;-90
2022/11/08 05:28:47;;;;;;;;;;;16.60;99.90;;;;;;5112224;28;19919;-90
2022/11/08 05:31:18;;;;;;;;;;;16.60;99.90;;;;;;5111016;28;19908;-90
2022/11/08 05:33:47;;;;;;;;;;;16.70;99.90;;;;;;5111643;28;19922;-90
2022/11/08 05:36:16;;;;;;;;;;;16.60;99.90;;;;;;5111740;28;20212;-90
2022/11/08 05:38:42;;;;;;;;;;;16.70;99.80;;;;;;5109514;28;20220;-90
2022/11/08 05:41:09;;;;;;;;;;;16.70;99.80;;;;;;5110347;28;19908;-90
2022/11/08 05:43:35;;;;;;;;;;;16.70;99.70;;;;;;5111973;28;19923;-90
2022/11/08 05:46:00;;;;;;;;;;;16.70;99.70;;;;;;5110768;28;19908;-90
2022/11/08 05:48:29;;;;;;;;;;;16.70;99.60;;;;;;5108493;28;19908;-90
2022/11/08 05:50:55;;;;;;;;;;;16.80;99.60;;;;;;5110684;28;19960;-90
2022/11/08 05:53:20;;;;;;;;;;;16.80;99.50;;;;;;5110414;28;20242;-90
2022/11/08 05:55:49;;;;;;;;;;;16.80;99.50;;;;;;5109507;28;19919;-90
2022/11/08 05:58:14;;;;;;;;;;;16.80;99.50;;;;;;5114183;28;20273;-90
2022/11/08 06:01:00;;;;;;;;;;;16.80;99.50;;;;;;5117761;28;19919;-90
2022/11/08 06:03:32;;;;;;;;;;;16.80;99.40;;;;;;5111644;28;19911;-90
2022/11/08 06:06:05;;;;;;;;;;;16.80;99.40;;;;;;5115043;28;19908;-90
2022/11/08 06:08:31;;;;;;;;;;;16.80;99.40;;;;;;5114655;28;19908;-89
2022/11/08 06:11:03;;;;;;;;;;;16.80;99.40;;;;;;5115599;28;20215;-90
2022/11/08 06:13:29;;;;;;;;;;;16.80;99.40;;;;;;5112370;28;20295;-90
2022/11/08 06:16:01;;;;;;;;;;;16.70;99.50;;;;;;5110111;28;20269;-90
2022/11/08 06:18:27;;;;;;;;;;;16.70;99.50;;;;;;5112241;28;20251;-90
2022/11/08 06:20:56;;;;;;;;;;;16.70;99.50;;;;;;5113438;28;19916;-90
2022/11/08 06:23:21;;;;;;;;;;;16.70;99.60;;;;;;5113674;28;19990;-90
2022/11/08 06:25:47;;;;;;;;;;;16.70;99.70;;;;;;5112338;28;20256;-91
2022/11/08 06:28:13;;;;;;;;;;;16.70;99.80;;;;;;5109804;28;19934;-90
2022/11/08 06:30:39;;;;;;;;;;;16.70;99.80;;;;;;5110583;28;19939;-90
2022/11/08 06:33:05;;;;;;;;;;;16.70;99.90;;;;;;5108086;28;20089;-91
2022/11/08 06:35:30;;;;;;;;;;;16.70;99.90;;;;;;5108355;28;20314;-89
2022/11/08 06:37:59;;;;;;;;;;;16.60;99.90;;;;;;5108176;28;19996;-90
2022/11/08 06:40:24;;;;;;;;;;;16.70;99.90;;;;;;5111063;28;19908;-90
2022/11/08 06:42:52;;;;;;;;;;;16.70;99.90;;;;;;5108659;28;19968;-90
2022/11/08 06:45:18;;;;;;;;;;;16.70;99.80;;;;;;5107188;28;20452;-91
2022/11/08 06:47:44;;;;;;;;;;;16.70;99.90;;;;;;5105932;28;19908;-91
2022/11/08 06:50:09;;;;;;;;;;;16.70;99.90;;;;;;5108615;28;20033;-91
2022/11/08 06:52:35;;;;;;;;;;;16.70;99.80;;;;;;5106655;28;20185;-89
2022/11/08 06:55:16;;;;;;;;;;;16.70;99.70;;;;;;5105057;28;20182;-90
2022/11/08 06:57:47;;;;;;;;;;;16.70;99.70;;;;;;5107879;28;19995;-90
2022/11/08 07:00:14;;;;;;;;;;;16.80;99.70;;;;;;5107288;28;19908;-93
2022/11/08 07:02:39;;;;;;;;;;;16.80;99.60;;;;;;5109159;28;20162;-89
2022/11/08 07:05:05;;;;;;;;;;;16.80;99.50;;;;;;5108803;28;19915;-90
2022/11/08 07:07:31;;;;;;;;;;;16.80;99.50;;;;;;5107031;28;19908;-89
2022/11/08 07:09:59;;;;;;;;;;;16.80;99.40;;;;;;5106151;28;20213;-90
2022/11/08 07:12:25;;;;;;;;;;;16.80;99.30;;;;;;5109085;28;19919;-90
2022/11/08 07:14:50;;;;;;;;;;;16.80;99.50;;;;;;5108289;28;20243;-91
2022/11/08 07:17:16;;;;;;;;;;;16.90;99.30;;;;;;5106990;28;19992;-89
2022/11/08 07:19:41;;;;;;;;;;;16.90;99.40;;;;;;5105781;28;19908;-91
2022/11/08 07:22:10;;;;;;;;;;;16.90;99.00;;;;;;5106637;28;19908;-89
2022/11/08 07:24:36;;;;;;;;;;;17.00;99.00;;;;;;5108211;28;19907;-90
2022/11/08 07:27:01;;;;;;;;;;;17.00;98.80;;;;;;5105720;28;19908;-89
2022/11/08 07:29:30;;;;;;;;;;;17.00;98.70;;;;;;5104799;28;19908;-92
2022/11/08 07:31:55;;;;;;;;;;;17.10;98.60;;;;;;5103966;28;19919;-90
2022/11/08 07:34:22;;;;;;;;;;;17.10;98.50;;;;;;5103860;28;19916;-90
2022/11/08 07:36:51;;;;;;;;;;;17.10;98.40;;;;;;5105633;28;19908;-90
2022/11/08 07:39:16;;;;;;;;;;;17.20;98.20;;;;;;5107017;28;20442;-90
2022/11/08 07:41:42;;;;;;;;;;;17.20;98.00;;;;;;5108064;28;19972;-90
2022/11/08 07:44:11;;;;;;;;;;;17.30;97.80;;;;;;5108819;28;20004;-91
2022/11/08 07:46:37;;;;;;;;;;;17.40;97.50;;;;;;5107937;28;20174;-90
2022/11/08 07:49:02;;;;;;;;;;;17.50;97.40;;;;;;5108663;28;20216;-91
2022/11/08 07:51:28;;;;;;;;;;;17.60;97.00;;;;;;5108154;28;20314;-89
2022/11/08 07:53:57;;;;;;;;;;;18.10;96.30;;;;;;5108437;28;19912;-90
2022/11/08 07:56:25;;;;;;;;;;;18.90;94.40;;;;;;5107735;28;19934;-91
2022/11/08 07:58:52;;;;;;;;;;;19.40;92.60;;;;;;5106964;28;20102;-93
2022/11/08 08:01:17;;;;;;;;;;;19.80;90.90;;;;;;5106812;28;20390;-90
2022/11/08 08:03:43;;;;;;;;;;;20.40;88.50;;;;;;5104944;28;20103;-91
2022/11/08 08:06:18;;;;;;;;;;;20.90;84.50;;;;;;5104205;28;20246;-90
2022/11/08 08:08:47;;;;;;;;;;;21.30;80.50;;;;;;5108685;28;19916;-90
2022/11/08 08:11:13;;;;;;;;;;;21.50;78.00;;;;;;5105216;28;19972;-90
2022/11/08 08:13:38;;;;;;;;;;;21.90;75.60;;;;;;5103689;28;19918;-89
2022/11/08 08:16:04;;;;;;;;;;;22.20;72.90;;;;;;5105466;28;20057;-92
2022/11/08 08:18:30;;;;;;;;;;;22.40;70.50;;;;;;5104234;28;20054;-90
2022/11/08 08:20:56;;;;;;;;;;;22.60;69.70;;;;;;5105704;28;19915;-90
2022/11/08 08:23:22;;;;;;;;;;;22.90;67.90;;;;;;5105260;28;19908;-92
2022/11/08 08:25:47;;;;;;;;;;;23.30;65.90;;;;;;5107746;28;19907;-90
2022/11/08 08:28:16;;;;;;;;;;;23.70;63.90;;;;;;5107712;28;19912;-90
2022/11/08 08:30:41;;;;;;;;;;;23.90;62.10;;;;;;5109323;28;19990;-91
2022/11/08 08:33:11;;;;;;;;;;;24.20;60.60;;;;;;5107997;28;20014;-91
2022/11/08 08:35:37;;;;;;;;;;;24.50;59.40;;;;;;5107191;28;20006;-90
2022/11/08 08:38:03;;;;;;;;;;;24.70;58.60;;;;;;5108528;28;20055;-90
2022/11/08 08:40:32;;;;;;;;;;;24.80;58.00;;;;;;5107256;28;19908;-91
2022/11/08 08:42:58;;;;;;;;;;;24.80;57.70;;;;;;5107526;28;20016;-92
2022/11/08 08:45:24;;;;;;;;;;;24.90;57.40;;;;;;5106471;28;20126;-91
2022/11/08 08:47:59;;;;;;;;;;;24.80;57.20;;;;;;5104883;28;19915;-91
2022/11/08 08:50:26;;;;;;;;;;;24.90;57.00;;;;;;5104871;28;20328;-91
2022/11/08 08:52:55;;;;;;;;;;;24.80;56.90;;;;;;5107207;28;19918;-89
2022/11/08 08:55:21;;;;;;;;;;;24.70;56.90;;;;;;5108164;28;19918;-88
2022/11/08 08:57:49;;;;;;;;;;;24.40;57.10;;;;;;5110026;28;19907;-91
2022/11/08 09:00:15;;;;;;;;;;;24.10;57.50;;;;;;5109333;28;19908;-91
2022/11/08 09:02:42;;;;;;;;;;;23.60;58.30;;;;;;5107790;28;19919;-90
2022/11/08 09:05:08;;;;;;;;;;;22.80;59.60;;;;;;5103555;28;20022;-90
2022/11/08 09:07:34;;;;;;;;;;;22.50;61.60;;;;;;5105745;28;20006;-90
2022/11/08 09:10:00;;;;;;;;;;;22.20;62.60;;;;;;5106271;28;20010;-91
2022/11/08 09:12:26;;;;;;;;;;;22.20;63.80;;;;;;5104432;28;19919;-90
2022/11/08 09:14:51;;;;;;;;;;;22.30;63.50;;;;;;5105479;28;20270;-90
2022/11/08 09:17:17;;;;;;;;;;;22.20;63.90;;;;;;5105982;28;19908;-90
2022/11/08 09:19:43;;;;;;;;;;;22.10;64.80;;;;;;5107658;28;20006;-91
2022/11/08 09:22:08;;;;;;;;;;;21.70;65.80;;;;;;5107663;28;19949;-89
2022/11/08 09:24:36;;;;;;;;;;;21.50;67.40;;;;;;5107465;28;19915;-91
2022/11/08 09:27:02;;;;;;;;;;;21.20;68.90;;;;;;5108515;28;19908;-90
2022/11/08 09:29:29;;;;;;;;;;;20.90;70.90;;;;;;5108239;28;19907;-91
2022/11/08 09:31:55;;;;;;;;;;;20.70;72.70;;;;;;5112316;28;19918;-90
2022/11/08 09:34:20;;;;;;;;;;;20.50;74.10;;;;;;5110799;28;20010;-90
2022/11/08 09:36:49;;;;;;;;;;;20.50;75.00;;;;;;5111382;28;19912;-90
2022/11/08 09:39:15;;;;;;;;;;;20.40;75.50;;;;;;5112870;28;20281;-90
2022/11/08 09:41:59;;;;;;;;;;;20.40;76.10;;;;;;5110259;28;20261;-90
2022/11/08 09:44:37;;;;;;;;;;;20.30;77.00;;;;;;5113702;28;19916;-91
2022/11/08 09:47:08;;;;;;;;;;;20.20;77.70;;;;;;5113280;28;19976;-91
2022/11/08 09:49:41;;;;;;;;;;;20.10;78.60;;;;;;5110460;28;19995;-90
2022/11/08 09:52:10;;;;;;;;;;;20.10;79.40;;;;;;5111660;28;19947;-91
2022/11/08 09:54:40;;;;;;;;;;;20.00;80.30;;;;;;5108824;28;19969;-90
2022/11/08 09:57:05;;;;;;;;;;;19.90;81.10;;;;;;5110918;28;19919;-91
2022/11/08 09:59:38;;;;;;;;;;;19.90;81.90;;;;;;5111594;28;19998;-92
2022/11/08 10:02:30;;;;;;;;;;;19.80;82.40;;;;;;5109171;28;19907;-92
2022/11/08 10:04:57;;;;;;;;;;;19.80;83.10;;;;;;5106370;28;19908;-91
2022/11/08 10:07:42;;;;;;;;;;;19.70;83.70;;;;;;5109907;28;19911;-91
2022/11/08 10:10:27;;;;;;;;;;;19.50;84.30;;;;;;5109692;28;19947;-91
2022/11/08 10:12:53;;;;;;;;;;;19.40;84.80;;;;;;5108711;28;19946;-91
2022/11/08 10:15:38;;;;;;;;;;;19.30;85.40;;;;;;5108925;28;20399;-90
2022/11/08 10:18:07;;;;;;;;;;;19.20;85.80;;;;;;5110171;28;20070;-90
2022/11/08 10:20:38;;;;;;;;;;;19.20;86.70;;;;;;5109766;28;19908;-90
2022/11/08 10:23:22;;;;;;;;;;;19.10;87.30;;;;;;5105426;28;20139;-91
2022/11/08 10:26:08;;;;;;;;;;;19.00;87.80;;;;;;5106390;28;19999;-90
2022/11/08 10:28:40;;;;;;;;;;;19.00;88.10;;;;;;5106568;28;20298;-90
2022/11/08 10:31:06;;;;;;;;;;;18.90;88.80;;;;;;5105185;28;20004;-90
2022/11/08 10:33:42;;;;;;;;;;;18.80;89.00;;;;;;5108447;28;20030;-91
2022/11/08 10:36:15;;;;;;;;;;;18.80;89.60;;;;;;5108672;28;19939;-92
2022/11/08 10:38:59;;;;;;;;;;;18.70;90.00;;;;;;5107315;28;19971;-92
2022/11/08 10:41:33;;;;;;;;;;;18.60;90.30;;;;;;5109035;28;19961;-91
2022/11/08 10:44:14;;;;;;;;;;;18.60;90.60;;;;;;5107543;28;19908;-92
2022/11/08 10:46:47;;;;;;;;;;;18.60;90.70;;;;;;5107467;28;19926;-91
2022/11/08 10:49:17;;;;;;;;;;;18.50;90.80;;;;;;5107186;28;19912;-90
2022/11/08 10:51:44;;;;;;;;;;;18.40;90.90;;;;;;5106149;28;19979;-90
2022/11/08 10:54:29;;;;;;;;;;;18.40;91.20;;;;;;5107011;28;20080;-91
2022/11/08 10:56:57;;;;;;;;;;;18.40;91.20;;;;;;5107768;28;19933;-90
2022/11/08 10:59:32;;;;;;;;;;;18.40;91.50;;;;;;5108104;28;19968;-91
2022/11/08 11:01:58;;;;;;;;;;;18.30;91.40;;;;;;5107591;28;19907;-91
2022/11/08 11:04:26;;;;;;;;;;;18.30;91.60;;;;;;5108930;28;19907;-90
2022/11/08 11:06:51;;;;;;;;;;;18.30;91.80;;;;;;5109313;28;20162;-90
2022/11/08 11:09:18;;;;;;;;;;;18.30;92.00;;;;;;5110575;28;19951;-90
2022/11/08 11:11:46;;;;;;;;;;;18.20;92.10;;;;;;5108830;28;19918;-91
2022/11/08 11:14:12;;;;;;;;;;;18.20;91.70;;;;;;5108061;28;20100;-91
2022/11/08 11:16:47;;;;;;;;;;;18.20;91.90;;;;;;5109121;28;20146;-91
2022/11/08 11:19:13;;;;;;;;;;;18.10;92.30;;;;;;5109332;28;20006;-90
2022/11/08 11:21:40;;;;;;;;;;;18.10;92.30;;;;;;5108234;28;20231;-89
2022/11/08 11:24:10;;;;;;;;;;;18.10;92.40;;;;;;5109624;28;20032;-90
2022/11/08 11:26:40;;;;;;;;;;;18.00;92.70;;;;;;5109810;28;19993;-90
2022/11/08 11:29:12;;;;;;;;;;;18.00;92.70;;;;;;5106538;28;20295;-91
2022/11/08 11:31:44;;;;;;;;;;;18.00;92.60;;;;;;5108186;28;19908;-89
2022/11/08 11:34:16;;;;;;;;;;;17.90;92.60;;;;;;5107758;28;19915;-90
2022/11/08 11:37:12;;;;;;;;;;;17.90;92.50;;;;;;5104215;28;19912;-90
2022/11/08 11:39:44;;;;;;;;;;;18.00;92.70;;;;;;5093485;28;20028;-90
2022/11/08 11:42:23;;;;;;;;;;;18.00;92.80;;;;;;5108179;28;20030;-90
2022/11/08 11:45:07;;;;;;;;;;;18.00;92.80;;;;;;5108738;28;19918;-90
2022/11/08 11:47:53;;;;;;;;;;;18.00;92.70;;;;;;5108701;28;20095;-91
2022/11/08 11:50:28;;;;;;;;;;;18.10;92.80;;;;;;5108821;28;19914;-91
2022/11/08 11:52:58;;;;;;;;;;;18.10;92.60;;;;;;5106999;28;20159;-91
2022/11/08 11:55:28;;;;;;;;;;;18.10;92.50;;;;;;5110458;28;20002;-90
2022/11/08 11:57:57;;;;;;;;;;;18.10;92.50;;;;;;5109815;28;20148;-90
2022/11/08 12:00:26;;;;;;;;;;;18.20;92.50;;;;;;5107763;28;20281;-90
2022/11/08 12:02:58;;;;;;;;;;;18.10;92.20;;;;;;5103740;28;19935;-92
2022/11/08 12:05:24;;;;;;;;;;;18.20;92.10;;;;;;5104101;28;19977;-90
2022/11/08 12:07:58;;;;;;;;;;;18.20;92.10;;;;;;5103925;28;20127;-89
2022/11/08 12:10:28;;;;;;;;;;;18.20;92.10;;;;;;5104014;28;19907;-91
2022/11/08 12:13:03;;;;;;;;;;;18.20;92.10;;;;;;5104054;28;19911;-91
2022/11/08 12:15:34;;;;;;;;;;;18.20;92.10;;;;;;5102601;28;19908;-92
2022/11/08 12:18:18;;;;;;;;;;;18.20;92.20;;;;;;5102953;28;20054;-90
2022/11/08 12:21:10;;;;;;;;;;;18.20;92.10;;;;;;5105825;28;19941;-92
2022/11/08 12:23:39;;;;;;;;;;;18.20;92.30;;;;;;5104116;28;20157;-90
2022/11/08 12:26:10;;;;;;;;;;;18.30;92.30;;;;;;5105890;28;20006;-91
2022/11/08 12:28:36;;;;;;;;;;;18.20;92.20;;;;;;5102803;28;19908;-91
2022/11/08 12:31:08;;;;;;;;;;;18.20;92.20;;;;;;5103351;28;19907;-91
2022/11/08 12:33:49;;;;;;;;;;;18.20;92.30;;;;;;5103784;28;19980;-90
2022/11/08 12:36:15;;;;;;;;;;;18.20;92.50;;;;;;5105348;28;19911;-91
2022/11/08 12:38:59;;;;;;;;;;;18.20;92.50;;;;;;5104875;28;19907;-90
2022/11/08 12:41:33;;;;;;;;;;;18.20;92.60;;;;;;5103878;28;20073;-90
2022/11/08 12:44:17;;;;;;;;;;;18.20;92.60;;;;;;5107406;28;20022;-91
2022/11/08 12:46:57;;;;;;;;;;;18.20;92.70;;;;;;5102698;28;20026;-91
2022/11/08 12:49:34;;;;;;;;;;;18.10;92.80;;;;;;5104405;28;19907;-91
2022/11/08 12:52:15;;;;;;;;;;;18.10;92.80;;;;;;5104130;28;19908;-91
2022/11/08 12:54:45;;;;;;;;;;;18.20;92.90;;;;;;5102647;28;19969;-92
2022/11/08 12:57:13;;;;;;;;;;;18.10;92.90;;;;;;5104594;28;19940;-90
2022/11/08 12:59:43;;;;;;;;;;;18.10;92.90;;;;;;5105395;28;19994;-91
2022/11/08 13:02:16;;;;;;;;;;;18.10;92.90;;;;;;5103060;28;19935;-90
2022/11/08 13:04:55;;;;;;;;;;;18.10;93.00;;;;;;5104591;28;20178;-91
2022/11/08 13:07:29;;;;;;;;;;;18.10;93.00;;;;;;5101274;28;19907;-89
2022/11/08 13:10:03;;;;;;;;;;;18.10;93.00;;;;;;5102985;28;19908;-91
2022/11/08 13:12:36;;;;;;;;;;;18.10;93.20;;;;;;5102301;28;19908;-90
2022/11/08 13:15:01;;;;;;;;;;;18.00;93.30;;;;;;5102286;28;19973;-91
2022/11/08 13:17:28;;;;;;;;;;;18.00;93.40;;;;;;5104672;28;20107;-90
2022/11/08 13:20:29;;;;;;;;;;;18.00;93.50;;;;;;5106604;28;19907;-90
2022/11/08 13:22:56;;;;;;;;;;;18.00;93.60;;;;;;5107078;28;19978;-91
2022/11/08 13:25:21;;;;;;;;;;;18.00;93.60;;;;;;5105364;28;19965;-90
2022/11/08 13:27:47;;;;;;;;;;;18.00;93.70;;;;;;5104555;28;20200;-90
2022/11/08 13:30:13;;;;;;;;;;;17.90;93.60;;;;;;5103916;28;19964;-89
2022/11/08 13:32:41;;;;;;;;;;;17.90;93.60;;;;;;5104423;28;20022;-90
2022/11/08 13:35:07;;;;;;;;;;;18.00;93.70;;;;;;5104771;28;19923;-90
2022/11/08 13:37:35;;;;;;;;;;;17.90;93.80;;;;;;5107605;28;19956;-89
2022/11/08 13:40:16;;;;;;;;;;;17.90;93.80;;;;;;5103741;28;19943;-90
2022/11/08 13:42:48;;;;;;;;;;;17.90;93.80;;;;;;5104100;28;20154;-92
2022/11/08 13:45:19;;;;;;;;;;;17.90;93.90;;;;;;5103991;28;19969;-91
2022/11/08 13:47:47;;;;;;;;;;;17.90;93.80;;;;;;5102097;28;20373;-90
2022/11/08 13:50:27;;;;;;;;;;;17.90;94.00;;;;;;5102935;28;19908;-90
2022/11/08 13:53:12;;;;;;;;;;;17.80;94.10;;;;;;5101433;28;19942;-90
2022/11/08 13:55:40;;;;;;;;;;;17.80;94.20;;;;;;5104039;28;19955;-90
2022/11/08 13:58:26;;;;;;;;;;;17.80;94.30;;;;;;5104627;28;19908;-91
2022/11/08 14:00:52;;;;;;;;;;;17.80;94.30;;;;;;5105340;28;19908;-90
2022/11/08 14:04:00;;;;;;;;;;;17.80;94.10;;;;;;5105487;28;19915;-90
2022/11/08 14:06:43;;;;;;;;;;;17.80;94.30;;;;;;5106604;28;19908;-91
2022/11/08 14:09:15;;;;;;;;;;;17.80;94.40;;;;;;5105425;28;20006;-91
2022/11/08 14:11:53;;;;;;;;;;;17.80;94.50;;;;;;5107262;28;20475;-90
2022/11/08 14:14:33;;;;;;;;;;;17.80;94.60;;;;;;5104630;28;20017;-90
2022/11/08 14:17:18;;;;;;;;;;;17.80;94.60;;;;;;5105284;28;19908;-91
2022/11/08 14:19:44;;;;;;;;;;;17.80;94.70;;;;;;5107460;28;19988;-91
2022/11/08 14:22:19;;;;;;;;;;;17.80;94.80;;;;;;5107009;28;19908;-92
2022/11/08 14:24:45;;;;;;;;;;;17.70;94.80;;;;;;5108409;28;20143;-92
2022/11/08 14:27:12;;;;;;;;;;;17.70;94.80;;;;;;5107082;28;20002;-90
2022/11/08 14:29:37;;;;;;;;;;;17.70;94.90;;;;;;5108461;28;20242;-91
2022/11/08 14:32:04;;;;;;;;;;;17.70;95.00;;;;;;5109891;28;19976;-92
2022/11/08 14:34:35;;;;;;;;;;;17.70;95.10;;;;;;5111397;28;20031;-92
2022/11/08 14:37:01;;;;;;;;;;;17.70;95.20;;;;;;5109452;28;20193;-91
2022/11/08 14:39:34;;;;;;;;;;;17.70;95.10;;;;;;5111614;28;20053;-91
2022/11/08 14:42:00;;;;;;;;;;;17.70;95.30;;;;;;5108768;28;20534;-92
2022/11/08 14:44:27;;;;;;;;;;;17.70;95.30;;;;;;5109508;28;20255;-91
2022/11/08 14:46:56;;;;;;;;;;;17.70;95.40;;;;;;5106821;28;20289;-90
2022/11/08 14:49:36;;;;;;;;;;;17.60;95.30;;;;;;5106028;28;19977;-89
2022/11/08 14:52:16;;;;;;;;;;;17.60;95.30;;;;;;5106476;28;19951;-90
2022/11/08 14:54:46;;;;;;;;;;;17.60;95.50;;;;;;5106954;28;19912;-91
2022/11/08 14:57:29;;;;;;;;;;;17.60;95.50;;;;;;5107564;28;20037;-90
2022/11/08 14:59:55;;;;;;;;;;;17.60;95.50;;;;;;5105955;28;20266;-91
2022/11/08 15:02:21;;;;;;;;;;;17.60;95.50;;;;;;5108778;28;19935;-91
2022/11/08 15:04:47;;;;;;;;;;;17.60;95.60;;;;;;5108046;28;19977;-91
2022/11/08 15:07:14;;;;;;;;;;;17.60;95.70;;;;;;5107937;28;20441;-90